Time;durP1;ratioP1;P1;durP2;ratioP2;P2;SDS_P1;SDS_P2;PMS_P1;PMS_P2;Temp;Humidity;BMP_temperature;BMP_pressure;BME280_temperature;BME280_humidity;BME280_pressure;Samples;Min_cycle;Max_cycle;Signal;HPM_P1;HPM_P2
2023/04/21 00:06:02;;;;;;;23.1;11.5;;;;;;;6.7;85.2;98830;;;;
2023/04/21 00:16:02;;;;;;;23.1;11.5;;;;;;;6.8;85.5;98820;;;;
2023/04/21 00:27:02;;;;;;;23.1;11.5;;;;;;;7.1;86.2;98810;;;;
2023/04/21 00:37:02;;;;;;;14.4;8.9;;;;;;;7.3;85.9;98810;;;;
2023/04/21 00:47:02;;;;;;;14.4;8.9;;;;;;;7.4;85.4;98810;;;;
2023/04/21 00:57:02;;;;;;;14.4;8.9;;;;;;;7.3;85.4;98810;;;;
2023/04/21 01:08:02;;;;;;;16.5;10.7;;;;;;;7.4;85.4;98810;;;;
2023/04/21 01:18:02;;;;;;;16.5;10.7;;;;;;;7.5;85.2;98800;;;;
2023/04/21 01:29:02;;;;;;;16.5;10.7;;;;;;;7.5;85;98810;;;;
2023/04/21 01:40:03;;;;;;;16.8;10.4;;;;;;;7.6;84.9;98800;;;;
2023/04/21 01:50:02;;;;;;;16.8;10.4;;;;;;;7.6;84.7;98800;;;;
2023/04/21 02:00:02;;;;;;;16.8;10.4;;;;;;;7.6;84.4;98800;;;;
2023/04/21 02:11:02;;;;;;;16.1;10.4;;;;;;;7.5;84.5;98800;;;;
2023/04/21 02:21:02;;;;;;;16.1;10.4;;;;;;;7.3;84.7;98810;;;;
2023/04/21 02:32:02;;;;;;;21.7;13.7;;;;;;;7.2;84.4;98810;;;;
2023/04/21 02:42:03;;;;;;;21.7;13.7;;;;;;;7.1;84.6;98810;;;;
2023/04/21 02:52:02;;;;;;;21.7;13.7;;;;;;;6.9;84.8;98810;;;;
2023/04/21 03:02:02;;;;;;;17.2;10.3;;;;;;;6.8;85.2;98810;;;;
2023/04/21 03:13:02;;;;;;;17.2;10.3;;;;;;;6.7;85.4;98800;;;;
2023/04/21 03:23:02;;;;;;;17.2;10.3;;;;;;;6.5;85.3;98800;;;;
2023/04/21 03:34:02;;;;;;;16.3;9.5;;;;;;;6.3;84.9;98810;;;;
2023/04/21 03:45:02;;;;;;;16.3;9.5;;;;;;;6;85;98810;;;;
2023/04/21 03:56:02;;;;;;;16.3;9.5;;;;;;;5.9;85.3;98820;;;;
2023/04/21 04:07:02;;;;;;;15;9.8;;;;;;;5.9;86.3;98830;;;;
2023/04/21 04:17:02;;;;;;;15;9.8;;;;;;;5.9;86.5;98840;;;;
2023/04/21 04:28:02;;;;;;;15;9.8;;;;;;;6;86.5;98840;;;;
2023/04/21 04:38:03;;;;;;;16.9;9.3;;;;;;;6.2;86.8;98850;;;;
2023/04/21 04:48:02;;;;;;;16.9;9.3;;;;;;;6.5;87.1;98860;;;;
2023/04/21 04:59:02;;;;;;;16.9;9.3;;;;;;;6.8;87.1;98860;;;;
2023/04/21 05:09:03;;;;;;;18.8;10.7;;;;;;;7.1;86.9;98870;;;;
2023/04/21 05:19:02;;;;;;;18.8;10.7;;;;;;;7.6;86.9;98860;;;;
2023/04/21 05:29:02;;;;;;;18.8;10.7;;;;;;;8.1;86.6;98870;;;;
2023/04/21 05:39:02;;;;;;;23.7;13.4;;;;;;;8.5;85.9;98870;;;;
2023/04/21 05:50:02;;;;;;;23.7;13.4;;;;;;;9.1;85.1;98870;;;;
2023/04/21 06:00:02;;;;;;;23.7;13.4;;;;;;;9.6;84.3;98870;;;;
2023/04/21 06:10:02;;;;;;;22.3;17.1;;;;;;;10.1;82.7;98860;;;;
2023/04/21 06:20:02;;;;;;;22.3;17.1;;;;;;;10.6;80.4;98870;;;;
2023/04/21 06:30:02;;;;;;;22.3;17.1;;;;;;;11.1;78.7;98870;;;;
2023/04/21 06:41:03;;;;;;;21.3;17.1;;;;;;;11.6;75.6;98870;;;;
2023/04/21 06:52:02;;;;;;;21.3;17.1;;;;;;;12;73.1;98860;;;;
2023/04/21 07:02:02;;;;;;;21;13.7;;;;;;;12.6;73.5;98860;;;;
2023/04/21 07:13:02;;;;;;;21;13.7;;;;;;;13.1;71.8;98850;;;;
2023/04/21 07:23:02;;;;;;;21;13.7;;;;;;;13.4;67.6;98850;;;;
2023/04/21 07:34:02;;;;;;;17.4;13.4;;;;;;;13.8;65.8;98840;;;;
2023/04/21 07:44:02;;;;;;;17.4;13.4;;;;;;;14.2;63.6;98840;;;;
2023/04/21 07:55:02;;;;;;;17.4;13.4;;;;;;;14.6;61.9;98840;;;;
2023/04/21 08:05:02;;;;;;;22.6;14.7;;;;;;;14.8;61.4;98840;;;;
2023/04/21 08:15:06;;;;;;;22.6;14.7;;;;;;;15.1;59.6;98830;;;;
2023/04/21 08:26:02;;;;;;;22.6;14.7;;;;;;;15.3;57.8;98830;;;;
2023/04/21 08:37:02;;;;;;;20.1;13.3;;;;;;;15.6;56;98820;;;;
2023/04/21 08:47:02;;;;;;;20.1;13.3;;;;;;;16;54.3;98820;;;;
2023/04/21 08:58:02;;;;;;;20.1;13.3;;;;;;;16.5;52.4;98810;;;;
2023/04/21 09:08:02;;;;;;;17.4;10.9;;;;;;;16.6;53;98800;;;;
2023/04/21 09:19:02;;;;;;;17.4;10.9;;;;;;;16.9;48.9;98790;;;;
2023/04/21 09:30:03;;;;;;;17.4;10.9;;;;;;;17.1;47.8;98780;;;;
2023/04/21 09:41:02;;;;;;;17.6;9.8;;;;;;;17.8;43.3;98780;;;;
2023/04/21 09:52:02;;;;;;;17.6;9.8;;;;;;;18.1;42.6;98770;;;;
2023/04/21 10:02:02;;;;;;;14.3;9.1;;;;;;;18.1;39.4;98760;;;;
2023/04/21 10:12:02;;;;;;;14.3;9.1;;;;;;;18.3;40.7;98760;;;;
2023/04/21 10:23:02;;;;;;;14.3;9.1;;;;;;;18.7;42.6;98750;;;;
2023/04/21 10:33:02;;;;;;;12.1;8;;;;;;;19.1;37.6;98750;;;;
2023/04/21 10:43:03;;;;;;;12.1;8;;;;;;;18.7;37.5;98740;;;;
2023/04/21 10:53:02;;;;;;;12.1;8;;;;;;;18.7;38.3;98740;;;;
2023/04/21 11:03:02;;;;;;;10.9;6.2;;;;;;;18.4;36.8;98730;;;;
2023/04/21 11:14:03;;;;;;;10.9;6.2;;;;;;;18;38.8;98730;;;;
2023/04/21 11:25:03;;;;;;;10.9;6.2;;;;;;;18.4;38.8;98720;;;;
2023/04/21 11:35:02;;;;;;;9.4;5.7;;;;;;;18.9;37.1;98710;;;;
2023/04/21 11:45:03;;;;;;;9.4;5.7;;;;;;;19.2;35.8;98700;;;;
2023/04/21 11:56:02;;;;;;;9.4;5.7;;;;;;;19.3;36.5;98690;;;;
2023/04/21 12:07:02;;;;;;;9.9;5.8;;;;;;;18.3;38.6;98690;;;;
2023/04/21 12:17:02;;;;;;;9.9;5.8;;;;;;;18.2;38.4;98680;;;;
2023/04/21 12:28:02;;;;;;;9.9;5.8;;;;;;;18.6;39.9;98670;;;;
2023/04/21 12:38:02;;;;;;;9.5;5.4;;;;;;;18.7;38.6;98660;;;;
2023/04/21 12:48:03;;;;;;;9.5;5.4;;;;;;;19.2;36.4;98660;;;;
2023/04/21 12:59:03;;;;;;;9.5;5.4;;;;;;;19.6;35.6;98640;;;;
2023/04/21 13:09:03;;;;;;;7.9;4.4;;;;;;;19.2;34;98640;;;;
2023/04/21 13:20:03;;;;;;;7.9;4.4;;;;;;;19;35.4;98630;;;;
2023/04/21 13:30:02;;;;;;;7.9;4.4;;;;;;;18.3;37.6;98620;;;;
2023/04/21 13:41:02;;;;;;;7;3.9;;;;;;;18.7;35;98620;;;;
2023/04/21 13:51:03;;;;;;;7;3.9;;;;;;;19;33.6;98610;;;;
2023/04/21 14:01:02;;;;;;;7.7;3.5;;;;;;;19.5;34.1;98590;;;;
2023/04/21 14:12:02;;;;;;;7.7;3.5;;;;;;;19.8;35.3;98590;;;;
2023/04/21 14:22:02;;;;;;;7.7;3.5;;;;;;;20.1;32.4;98580;;;;
2023/04/21 14:32:02;;;;;;;8.7;4.3;;;;;;;19.6;31.9;98570;;;;
2023/04/21 14:42:02;;;;;;;8.7;4.3;;;;;;;19.9;31.3;98570;;;;
2023/04/21 14:53:02;;;;;;;8.7;4.3;;;;;;;20.3;32.9;98550;;;;
2023/04/21 15:03:02;;;;;;;6.2;3.8;;;;;;;20.4;31.8;98550;;;;
2023/04/21 15:14:02;;;;;;;6.2;3.8;;;;;;;21.7;31.4;98540;;;;
2023/04/21 15:24:02;;;;;;;6.2;3.8;;;;;;;23.2;27.8;98540;;;;
2023/04/21 15:34:02;;;;;;;7.8;4.7;;;;;;;24.9;26;98540;;;;
2023/04/21 15:44:02;;;;;;;7.8;4.7;;;;;;;24.9;24.6;98530;;;;
2023/04/21 15:54:02;;;;;;;7.8;4.7;;;;;;;24.9;24.1;98520;;;;
2023/04/21 16:04:04;;;;;;;7.7;4;;;;;;;25.3;24;98520;;;;
2023/04/21 16:14:02;;;;;;;7.7;4;;;;;;;26.2;24;98510;;;;
2023/04/21 16:24:02;;;;;;;7.7;4;;;;;;;22.4;27.8;98520;;;;
2023/04/21 16:34:02;;;;;;;6.9;3.8;;;;;;;20.8;30;98520;;;;
2023/04/21 16:45:03;;;;;;;6.9;3.8;;;;;;;19.2;32.2;98510;;;;
2023/04/21 16:56:02;;;;;;;6.9;3.8;;;;;;;18.1;33.8;98520;;;;
2023/04/21 17:06:03;;;;;;;12.2;5.6;;;;;;;17.4;35.5;98510;;;;
2023/04/21 17:16:02;;;;;;;12.2;5.6;;;;;;;16.7;36.4;98510;;;;
2023/04/21 17:27:02;;;;;;;12.2;5.6;;;;;;;16.1;37.5;98510;;;;
2023/04/21 17:37:03;;;;;;;9.2;5.4;;;;;;;15.4;39.4;98510;;;;
2023/04/21 17:47:06;;;;;;;9.2;5.4;;;;;;;14.7;40.6;98510;;;;
2023/04/21 17:58:02;;;;;;;9.2;5.4;;;;;;;13.8;42.1;98520;;;;
2023/04/21 18:08:03;;;;;;;14;10.2;;;;;;;13.1;44.4;98520;;;;
2023/04/21 18:18:02;;;;;;;14;10.2;;;;;;;12.4;45.2;98530;;;;
2023/04/21 18:28:03;;;;;;;14;10.2;;;;;;;11.9;48.2;98530;;;;
2023/04/21 18:39:02;;;;;;;14.9;7.9;;;;;;;11.4;49;98530;;;;
2023/04/21 18:49:04;;;;;;;14.9;7.9;;;;;;;11;51;98530;;;;
2023/04/21 18:59:03;;;;;;;14.9;7.9;;;;;;;10.5;52.3;98530;;;;
2023/04/21 19:10:03;;;;;;;16.6;10.1;;;;;;;10.4;52.6;98540;;;;
2023/04/21 19:20:02;;;;;;;16.6;10.1;;;;;;;10.1;53.1;98540;;;;
2023/04/21 19:30:03;;;;;;;16.6;10.1;;;;;;;9.8;53.4;98540;;;;
2023/04/21 19:41:02;;;;;;;35.1;21.2;;;;;;;9.4;53.3;98540;;;;
2023/04/21 19:51:02;;;;;;;35.1;21.2;;;;;;;9.1;54.5;98540;;;;
2023/04/21 20:01:03;;;;;;;41.6;22.4;;;;;;;8.7;55.1;98540;;;;
2023/04/21 20:12:03;;;;;;;41.6;22.4;;;;;;;8.4;56.2;98550;;;;
2023/04/21 20:22:03;;;;;;;41.6;22.4;;;;;;;8.2;57.2;98550;;;;
2023/04/21 20:32:03;;;;;;;82.4;42.9;;;;;;;8;57.7;98550;;;;
2023/04/21 20:43:05;;;;;;;82.4;42.9;;;;;;;7.7;59.4;98560;;;;
2023/04/21 20:53:03;;;;;;;82.4;42.9;;;;;;;7.5;60.2;98560;;;;
2023/04/21 21:03:08;;;;;;;32.4;17;;;;;;;7.3;63.3;98560;;;;
2023/04/21 21:14:03;;;;;;;32.4;17;;;;;;;7.2;64.6;98570;;;;
2023/04/21 21:24:03;;;;;;;32.4;17;;;;;;;7;65.6;98570;;;;
2023/04/21 21:34:03;;;;;;;22.9;14.9;;;;;;;6.8;67.1;98560;;;;
2023/04/21 21:45:03;;;;;;;22.9;14.9;;;;;;;6.7;67.2;98560;;;;
2023/04/21 21:56:03;;;;;;;22.9;14.9;;;;;;;6.7;68;98570;;;;
2023/04/21 22:07:03;;;;;;;28.4;15;;;;;;;6.4;68.3;98580;;;;
2023/04/21 22:18:03;;;;;;;28.4;15;;;;;;;6.2;68;98580;;;;
2023/04/21 22:28:03;;;;;;;28.4;15;;;;;;;6.1;69.8;98580;;;;
2023/04/21 22:39:03;;;;;;;28;15.6;;;;;;;5.9;70.4;98580;;;;
2023/04/21 22:49:03;;;;;;;28;15.6;;;;;;;5.9;70.7;98570;;;;
2023/04/21 23:00:04;;;;;;;28;15.6;;;;;;;5.8;70.6;98570;;;;
2023/04/21 23:11:03;;;;;;;30.3;15.1;;;;;;;5.6;69.9;98580;;;;
2023/04/21 23:22:03;;;;;;;30.3;15.1;;;;;;;5.5;70.8;98580;;;;
2023/04/21 23:32:03;;;;;;;30.3;15.1;;;;;;;5.5;71;98580;;;;
2023/04/21 23:42:03;;;;;;;27.1;14.3;;;;;;;5.4;72.1;98560;;;;
2023/04/21 23:53:03;;;;;;;27.1;14.3;;;;;;;5.4;73.1;98560;;;;
